createdAt,value
2022-11-09T00:01:04.650Z,4.20
2022-11-09T00:03:32.830Z,3.95
2022-11-09T00:06:01.762Z,4.03
2022-11-09T00:08:30.369Z,4.40
2022-11-09T00:11:04.448Z,4.15
2022-11-09T00:13:37.429Z,3.90
2022-11-09T00:16:06.061Z,4.07
2022-11-09T00:18:35.751Z,3.88
2022-11-09T00:21:07.767Z,4.40
2022-11-09T00:23:36.283Z,3.80
2022-11-09T00:26:05.644Z,4.03
2022-11-09T00:28:35.777Z,3.80
2022-11-09T00:31:05.751Z,4.43
2022-11-09T00:33:34.165Z,4.15
2022-11-09T00:36:07.388Z,3.78
2022-11-09T00:38:35.716Z,3.95
2022-11-09T00:41:04.242Z,3.88
2022-11-09T00:43:32.640Z,4.50
2022-11-09T00:46:02.221Z,4.18
2022-11-09T00:48:30.763Z,4.40
2022-11-09T00:51:36.222Z,4.15
2022-11-09T00:54:04.390Z,3.65
2022-11-09T00:56:32.477Z,4.20
2022-11-09T00:59:00.676Z,3.70
2022-11-09T01:01:30.283Z,3.70
2022-11-09T01:04:16.979Z,3.60
2022-11-09T01:06:45.228Z,3.80
2022-11-09T01:09:13.655Z,4.22
2022-11-09T01:11:41.812Z,3.42
2022-11-09T01:14:11.243Z,4.07
2022-11-09T01:16:40.756Z,3.72
2022-11-09T01:19:08.824Z,3.65
2022-11-09T01:21:36.997Z,4.18
2022-11-09T01:24:05.524Z,3.72
2022-11-09T01:26:33.904Z,3.70
2022-11-09T01:29:02.086Z,3.60
2022-11-09T01:31:30.142Z,4.25
2022-11-09T01:33:59.967Z,3.90
2022-11-09T01:36:28.097Z,3.80
2022-11-09T01:38:56.203Z,3.70
2022-11-09T01:41:27.476Z,3.67
2022-11-09T01:44:10.582Z,3.63
2022-11-09T01:46:44.572Z,4.47
2022-11-09T01:49:22.029Z,3.42
2022-11-09T01:51:54.421Z,3.40
2022-11-09T01:54:26.521Z,3.80
2022-11-09T01:56:58.158Z,3.75
2022-11-09T01:59:30.879Z,3.80
2022-11-09T02:01:59.857Z,3.47
2022-11-09T02:04:34.590Z,3.40
2022-11-09T02:07:03.164Z,3.70
2022-11-09T02:09:35.824Z,3.88
2022-11-09T02:12:04.435Z,3.80
2022-11-09T02:14:35.637Z,3.85
2022-11-09T02:17:04.162Z,3.78
2022-11-09T02:19:33.790Z,3.47
2022-11-09T02:22:04.297Z,3.63
2022-11-09T02:24:34.424Z,3.45
2022-11-09T02:27:02.864Z,3.80
2022-11-09T02:29:36.661Z,3.33
2022-11-09T02:32:09.698Z,3.80
2022-11-09T02:34:37.828Z,3.47
2022-11-09T02:37:07.527Z,3.53
2022-11-09T02:39:36.170Z,3.53
2022-11-09T02:42:10.515Z,3.47
2022-11-09T02:44:42.944Z,3.80
2022-11-09T02:47:11.053Z,3.60
2022-11-09T02:49:39.150Z,3.20
2022-11-09T02:52:08.635Z,3.50
2022-11-09T02:54:36.849Z,3.22
2022-11-09T02:57:05.085Z,3.47
2022-11-09T02:59:33.165Z,3.38
2022-11-09T03:02:01.558Z,3.33
2022-11-09T03:04:29.659Z,3.58
2022-11-09T03:06:57.895Z,3.40
2022-11-09T03:09:27.534Z,3.22
2022-11-09T03:11:55.844Z,3.60
2022-11-09T03:14:24.075Z,3.58
2022-11-09T03:16:52.141Z,3.60
2022-11-09T03:19:20.317Z,3.60
2022-11-09T03:21:48.588Z,3.92
2022-11-09T03:24:16.911Z,3.53
2022-11-09T03:26:46.417Z,3.38
2022-11-09T03:29:14.753Z,3.40
2022-11-09T03:31:42.968Z,3.30
2022-11-09T03:34:11.101Z,3.25
2022-11-09T03:36:39.326Z,3.40
2022-11-09T03:39:07.434Z,3.15
2022-11-09T03:41:36.251Z,3.58
2022-11-09T03:44:05.912Z,3.50
2022-11-09T03:46:34.092Z,3.05
2022-11-09T03:49:02.333Z,3.47
2022-11-09T03:51:30.533Z,3.60
2022-11-09T03:53:58.756Z,3.17
2022-11-09T03:56:27.052Z,3.20
2022-11-09T03:58:55.193Z,3.58
2022-11-09T04:01:24.789Z,3.10
2022-11-09T04:03:52.968Z,3.88
2022-11-09T04:06:21.072Z,3.08
2022-11-09T04:08:51.533Z,3.50
2022-11-09T04:11:20.261Z,3.87
2022-11-09T04:13:48.456Z,3.33
2022-11-09T04:16:16.606Z,3.30
2022-11-09T04:18:46.058Z,2.90
2022-11-09T04:21:14.143Z,3.60
2022-11-09T04:23:42.485Z,3.45
2022-11-09T04:26:10.691Z,3.45
2022-11-09T04:28:38.745Z,3.40
2022-11-09T04:31:07.105Z,3.42
2022-11-09T04:33:35.190Z,3.50
2022-11-09T04:36:05.937Z,3.60
2022-11-09T04:38:34.275Z,3.30
2022-11-09T04:41:03.036Z,3.35
2022-11-09T04:43:31.278Z,3.40
2022-11-09T04:46:01.857Z,3.15
2022-11-09T04:48:29.985Z,3.10
2022-11-09T04:51:02.432Z,3.40
2022-11-09T04:53:32.513Z,3.20
2022-11-09T04:56:00.790Z,3.33
2022-11-09T04:58:28.908Z,3.20
2022-11-09T05:01:02.743Z,2.97
2022-11-09T05:03:31.301Z,3.25
2022-11-09T05:05:59.540Z,3.35
2022-11-09T05:08:28.085Z,3.22
2022-11-09T05:10:59.199Z,3.50
2022-11-09T05:13:27.467Z,3.28
2022-11-09T05:15:55.681Z,3.40
2022-11-09T05:18:23.821Z,3.70
2022-11-09T05:20:52.052Z,3.30
2022-11-09T05:23:37.741Z,3.90
2022-11-09T05:26:07.353Z,3.50
2022-11-09T05:28:35.520Z,3.30
2022-11-09T05:31:03.687Z,3.55
2022-11-09T05:33:31.892Z,3.63
2022-11-09T05:36:00.340Z,3.67
2022-11-09T05:38:28.521Z,3.60
2022-11-09T05:40:57.003Z,3.80
2022-11-09T05:43:26.669Z,3.80
2022-11-09T05:45:54.886Z,3.83
2022-11-09T05:48:23.072Z,3.47
2022-11-09T05:50:51.261Z,3.08
2022-11-09T05:53:19.784Z,3.63
2022-11-09T05:55:48.198Z,3.47
2022-11-09T05:58:16.302Z,3.90
2022-11-09T06:00:45.801Z,3.47
2022-11-09T06:03:14.043Z,3.83
2022-11-09T06:05:42.736Z,3.38
2022-11-09T06:08:12.999Z,3.35
2022-11-09T06:10:41.546Z,3.42
2022-11-09T06:13:10.286Z,3.45
2022-11-09T06:15:38.704Z,3.70
2022-11-09T06:18:08.238Z,3.03
2022-11-09T06:20:37.225Z,3.13
2022-11-09T06:23:05.604Z,3.30
2022-11-09T06:25:34.509Z,3.67
2022-11-09T06:28:02.926Z,3.40
2022-11-09T06:30:31.373Z,3.53
2022-11-09T06:33:00.636Z,3.20
2022-11-09T06:35:30.536Z,3.40
2022-11-09T06:37:59.305Z,3.10
2022-11-09T06:40:27.918Z,3.25
2022-11-09T06:42:58.314Z,3.58
2022-11-09T06:45:28.545Z,3.35
2022-11-09T06:47:57.606Z,3.17
2022-11-09T06:50:26.195Z,3.15
2022-11-09T06:52:59.031Z,3.13
2022-11-09T06:55:27.745Z,3.13
2022-11-09T06:57:56.201Z,3.53
2022-11-09T07:00:25.692Z,3.08
2022-11-09T07:02:53.942Z,3.30
2022-11-09T07:05:22.078Z,3.17
2022-11-09T07:07:50.282Z,3.10
2022-11-09T07:10:20.264Z,3.10
2022-11-09T07:12:48.720Z,3.58
2022-11-09T07:15:18.540Z,3.63
2022-11-09T07:17:46.691Z,3.53
2022-11-09T07:20:15.190Z,2.80
2022-11-09T07:22:43.775Z,3.47
2022-11-09T07:25:13.084Z,3.40
2022-11-09T07:27:42.689Z,2.97
2022-11-09T07:30:12.194Z,3.28
2022-11-09T07:33:07.315Z,3.15
2022-11-09T07:35:29.795Z,3.03
2022-11-09T07:38:02.437Z,3.00
2022-11-09T07:40:31.057Z,3.00
2022-11-09T07:43:01.603Z,3.20
2022-11-09T07:45:30.415Z,3.15
2022-11-09T07:47:59.833Z,3.58
2022-11-09T07:50:29.359Z,3.30
2022-11-09T07:52:58.083Z,3.00
2022-11-09T07:55:26.949Z,3.35
2022-11-09T07:58:00.642Z,3.58
2022-11-09T08:00:30.623Z,4.10
2022-11-09T08:02:59.146Z,4.53
2022-11-09T08:05:27.931Z,6.20
2022-11-09T08:07:57.365Z,8.55
2022-11-09T08:10:26.159Z,8.82
2022-11-09T08:12:55.758Z,9.77
2022-11-09T08:15:25.394Z,11.52
2022-11-09T08:17:53.854Z,12.60
2022-11-09T08:20:22.614Z,12.13
2022-11-09T08:22:50.725Z,13.18
2022-11-09T08:25:19.057Z,12.95
2022-11-09T08:27:47.204Z,13.20
2022-11-09T08:30:17.146Z,13.90
2022-11-09T08:32:47.206Z,14.30
2022-11-09T08:35:18.063Z,15.55
2022-11-09T08:37:47.050Z,14.75
2022-11-09T08:40:17.046Z,15.60
2022-11-09T08:42:45.417Z,14.90
2022-11-09T08:45:14.091Z,15.75
2022-11-09T08:47:42.961Z,15.60
2022-11-09T08:50:14.412Z,15.20
2022-11-09T08:52:42.749Z,15.95
2022-11-09T08:55:11.340Z,15.02
2022-11-09T08:57:39.518Z,15.82
2022-11-09T09:00:08.887Z,15.95
2022-11-09T09:02:37.060Z,16.30
2022-11-09T09:05:06.132Z,15.85
2022-11-09T09:07:35.733Z,15.43
2022-11-09T09:10:04.497Z,16.05
2022-11-09T09:12:33.013Z,14.85
2022-11-09T09:15:01.137Z,15.10
2022-11-09T09:17:29.304Z,15.25
2022-11-09T09:19:57.517Z,16.08
2022-11-09T09:22:25.906Z,16.52
2022-11-09T09:24:55.364Z,15.45
2022-11-09T09:27:23.824Z,16.20
2022-11-09T09:29:52.016Z,16.00
2022-11-09T09:32:20.232Z,16.45
2022-11-09T09:34:48.372Z,16.63
2022-11-09T09:37:17.644Z,17.60
2022-11-09T09:39:45.960Z,17.85
2022-11-09T09:42:19.679Z,18.52
2022-11-09T09:44:54.345Z,17.60
2022-11-09T09:47:28.847Z,18.90
2022-11-09T09:50:00.669Z,17.33
2022-11-09T09:52:37.991Z,15.13
2022-11-09T09:55:13.808Z,15.93
2022-11-09T09:57:49.124Z,13.60
2022-11-09T10:00:23.115Z,12.63
2022-11-09T10:02:51.871Z,11.70
2022-11-09T10:05:21.447Z,11.63
2022-11-09T10:07:57.631Z,11.32
2022-11-09T10:10:44.499Z,11.00
2022-11-09T10:13:53.610Z,11.15
2022-11-09T10:16:29.194Z,10.27
2022-11-09T10:19:20.900Z,10.25
2022-11-09T10:21:53.760Z,9.18
2022-11-09T10:24:44.451Z,8.77
2022-11-09T10:27:29.618Z,8.88
2022-11-09T10:30:02.111Z,8.82
2022-11-09T10:32:32.574Z,7.75
2022-11-09T10:35:06.222Z,7.47
2022-11-09T10:37:39.856Z,7.43
2022-11-09T10:40:15.422Z,7.63
2022-11-09T10:42:46.472Z,7.60
2022-11-09T10:47:50.965Z,6.88
2022-11-09T10:50:34.256Z,6.55
2022-11-09T10:53:20.311Z,6.63
2022-11-09T10:55:53.684Z,5.95
2022-11-09T10:58:33.129Z,5.72
2022-11-09T11:01:13.532Z,5.47
2022-11-09T11:03:43.181Z,5.70
2022-11-09T11:06:18.458Z,5.57
2022-11-09T11:08:48.132Z,5.55
2022-11-09T11:11:39.432Z,6.13
2022-11-09T11:14:23.133Z,4.82
2022-11-09T11:16:53.870Z,5.63
2022-11-09T11:19:34.893Z,7.23
2022-11-09T11:22:23.112Z,7.10
2022-11-09T11:24:57.343Z,6.65
2022-11-09T11:27:31.168Z,6.25
2022-11-09T11:30:06.791Z,6.00
2022-11-09T11:32:36.409Z,6.45
2022-11-09T11:35:06.586Z,5.85
2022-11-09T11:37:47.464Z,5.53
2022-11-09T11:40:21.500Z,5.80
2022-11-09T11:43:07.171Z,4.88
2022-11-09T11:45:42.413Z,5.30
2022-11-09T11:48:36.356Z,5.50
2022-11-09T11:51:12.509Z,5.32
2022-11-09T11:53:55.865Z,4.95
2022-11-09T11:56:30.412Z,4.85
2022-11-09T11:59:20.157Z,4.78
2022-11-09T12:01:59.439Z,5.13
2022-11-09T12:04:52.359Z,5.07
2022-11-09T12:07:32.375Z,5.05
2022-11-09T12:10:16.105Z,5.03
2022-11-09T12:12:52.084Z,4.60
2022-11-09T12:15:30.752Z,4.90
2022-11-09T12:18:08.981Z,5.07
2022-11-09T12:20:49.154Z,4.25
2022-11-09T12:23:29.764Z,4.87
2022-11-09T12:26:14.253Z,5.00
2022-11-09T12:29:03.895Z,5.00
2022-11-09T12:31:48.795Z,5.40
2022-11-09T12:34:22.421Z,4.60
2022-11-09T12:36:56.762Z,4.70
2022-11-09T12:39:30.519Z,4.65
2022-11-09T12:42:03.224Z,4.35
2022-11-09T12:44:35.813Z,4.25
2022-11-09T12:47:08.068Z,4.68
2022-11-09T12:49:39.575Z,4.50
2022-11-09T12:52:12.398Z,4.30
2022-11-09T12:54:44.993Z,4.57
2022-11-09T12:57:17.360Z,4.13
2022-11-09T12:59:50.510Z,4.55
2022-11-09T13:02:29.228Z,4.57
2022-11-09T13:04:59.583Z,4.00
2022-11-09T13:07:49.697Z,4.97
2022-11-09T13:10:30.981Z,4.10
2022-11-09T13:15:36.148Z,4.22
2022-11-09T13:18:07.343Z,4.30
2022-11-09T13:20:56.497Z,3.97
2022-11-09T13:23:54.528Z,4.60
2022-11-09T13:26:32.085Z,4.10
2022-11-09T13:29:11.235Z,4.07
2022-11-09T13:32:31.386Z,5.30
2022-11-09T13:35:00.534Z,4.55
2022-11-09T13:37:48.108Z,4.55
2022-11-09T13:40:44.785Z,5.00
2022-11-09T13:43:23.405Z,4.80
2022-11-09T13:45:54.537Z,4.53
2022-11-09T13:51:05.156Z,4.50
2022-11-09T13:53:52.820Z,4.70
2022-11-09T13:56:29.351Z,4.63
2022-11-09T13:59:01.792Z,4.65
2022-11-09T14:01:34.290Z,6.68
2022-11-09T14:04:04.012Z,10.15
2022-11-09T14:06:33.804Z,9.77
2022-11-09T14:09:04.175Z,10.48
2022-11-09T14:11:52.077Z,11.50
2022-11-09T14:14:57.072Z,10.10
2022-11-09T14:17:35.457Z,10.07
2022-11-09T14:20:14.957Z,10.00
2022-11-09T14:22:43.217Z,9.60
2022-11-09T14:25:17.339Z,10.07
2022-11-09T14:27:57.041Z,9.27
2022-11-09T14:30:27.761Z,9.23
2022-11-09T14:32:57.137Z,8.75
2022-11-09T14:35:28.668Z,8.23
2022-11-09T14:37:59.591Z,8.25
2022-11-09T14:43:00.833Z,7.95
2022-11-09T14:45:30.171Z,7.65
2022-11-09T14:48:00.990Z,8.02
2022-11-09T14:50:32.491Z,7.13
2022-11-09T14:53:02.429Z,7.22
2022-11-09T14:55:33.170Z,6.88
2022-11-09T14:58:03.683Z,6.78
2022-11-09T15:00:34.564Z,6.22
2022-11-09T15:03:23.461Z,6.22
2022-11-09T15:06:03.630Z,6.75
2022-11-09T15:08:32.509Z,7.17
2022-11-09T15:11:01.148Z,6.47
2022-11-09T15:13:33.725Z,6.05
2022-11-09T15:16:02.518Z,5.72
2022-11-09T15:18:34.223Z,5.63
2022-11-09T15:21:14.705Z,6.05
2022-11-09T15:23:44.316Z,5.87
2022-11-09T15:26:35.346Z,5.72
2022-11-09T15:29:35.845Z,6.03
2022-11-09T15:32:17.738Z,5.03
2022-11-09T15:34:54.900Z,5.78
2022-11-09T15:37:26.937Z,6.13
2022-11-09T15:39:55.846Z,5.05
2022-11-09T15:42:25.216Z,5.78
2022-11-09T15:44:56.332Z,5.30
2022-11-09T15:47:31.598Z,5.00
2022-11-09T15:50:00.276Z,5.57
2022-11-09T15:52:29.327Z,5.22
2022-11-09T15:54:57.677Z,5.57
2022-11-09T15:57:25.995Z,5.10
2022-11-09T15:59:55.470Z,5.40
2022-11-09T16:02:23.576Z,5.72
2022-11-09T16:04:51.823Z,5.45
2022-11-09T16:07:19.915Z,4.85
2022-11-09T16:09:48.120Z,5.03
2022-11-09T16:12:16.246Z,5.05
2022-11-09T16:14:44.335Z,4.75
2022-11-09T16:17:13.940Z,5.20
2022-11-09T16:19:43.267Z,4.60
2022-11-09T16:22:12.507Z,4.90
2022-11-09T16:24:40.683Z,4.85
2022-11-09T16:27:17.213Z,4.20
2022-11-09T16:29:58.100Z,4.22
2022-11-09T16:32:27.497Z,4.38
2022-11-09T16:35:23.233Z,3.90
2022-11-09T16:37:44.662Z,4.22
2022-11-09T16:40:17.142Z,4.25
2022-11-09T16:42:45.415Z,4.18
2022-11-09T16:45:16.921Z,4.78
2022-11-09T16:47:49.489Z,4.25
2022-11-09T16:50:17.723Z,4.68
2022-11-09T16:52:46.045Z,3.20
2022-11-09T16:55:14.224Z,4.28
2022-11-09T16:57:42.395Z,4.22
2022-11-09T17:00:12.782Z,4.05
2022-11-09T17:02:40.923Z,3.85
2022-11-09T17:05:10.861Z,3.65
2022-11-09T17:07:42.834Z,3.53
2022-11-09T17:10:11.708Z,3.85
2022-11-09T17:12:39.954Z,3.90
2022-11-09T17:15:09.209Z,3.90
2022-11-09T17:17:37.475Z,4.03
2022-11-09T17:20:07.135Z,3.72
2022-11-09T17:22:39.260Z,3.95
2022-11-09T17:25:11.450Z,3.50
2022-11-09T17:27:40.062Z,4.10
2022-11-09T17:30:10.669Z,3.85
2022-11-09T17:32:38.905Z,3.38
2022-11-09T17:35:07.375Z,3.67
2022-11-09T17:37:37.023Z,4.03
2022-11-09T17:40:06.150Z,3.55
2022-11-09T17:42:36.197Z,3.65
2022-11-09T17:45:04.997Z,3.60
2022-11-09T17:47:33.203Z,3.80
2022-11-09T17:50:01.453Z,4.60
2022-11-09T17:52:29.607Z,4.15
2022-11-09T17:54:59.211Z,4.22
2022-11-09T17:57:27.287Z,4.07
2022-11-09T17:59:55.564Z,3.95
2022-11-09T18:02:23.908Z,4.00
2022-11-09T18:04:52.132Z,3.90
2022-11-09T18:07:20.353Z,3.63
2022-11-09T18:09:48.467Z,3.70
2022-11-09T18:12:18.093Z,3.65
2022-11-09T18:14:46.320Z,3.67
2022-11-09T18:17:14.531Z,3.50
2022-11-09T18:19:42.718Z,4.25
2022-11-09T18:22:12.830Z,3.50
2022-11-09T18:24:41.291Z,3.80
2022-11-09T18:27:09.477Z,4.10
2022-11-09T18:29:39.012Z,3.85
2022-11-09T18:32:07.121Z,3.80
2022-11-09T18:34:35.415Z,3.40
2022-11-09T18:37:03.525Z,3.70
2022-11-09T18:39:31.992Z,3.85
2022-11-09T18:42:01.963Z,4.05
2022-11-09T18:44:30.186Z,3.60
2022-11-09T18:47:05.035Z,4.00
2022-11-09T18:49:33.808Z,4.00
2022-11-09T18:52:02.013Z,3.90
2022-11-09T18:54:31.589Z,4.15
2022-11-09T18:56:59.900Z,4.25
2022-11-09T18:59:28.095Z,4.30
2022-11-09T19:01:56.217Z,4.40
2022-11-09T19:04:25.710Z,4.10
2022-11-09T19:06:55.262Z,4.03
2022-11-09T19:09:35.419Z,4.30
2022-11-09T19:12:08.105Z,4.40
2022-11-09T19:14:40.829Z,4.45
2022-11-09T19:17:13.096Z,4.85
2022-11-09T19:19:44.129Z,4.20
2022-11-09T19:24:45.690Z,4.70
2022-11-09T19:27:13.936Z,4.10
2022-11-09T19:29:42.359Z,4.25
2022-11-09T19:32:10.782Z,4.72
2022-11-09T19:34:39.001Z,4.10
2022-11-09T19:37:09.027Z,4.68
2022-11-09T19:39:41.800Z,4.97
2022-11-09T19:42:11.103Z,4.70
2022-11-09T19:44:39.376Z,4.60
2022-11-09T19:47:07.616Z,5.03
2022-11-09T19:49:35.747Z,5.10
2022-11-09T19:52:03.862Z,4.55
2022-11-09T19:54:33.395Z,4.40
2022-11-09T19:57:01.515Z,4.40
2022-11-09T19:59:29.799Z,4.55
2022-11-09T20:01:57.935Z,4.45
2022-11-09T20:04:26.047Z,4.07
2022-11-09T20:06:54.248Z,5.13
2022-11-09T20:09:22.407Z,5.03
2022-11-09T20:12:09.428Z,4.65
2022-11-09T20:14:37.628Z,4.40
2022-11-09T20:17:05.954Z,4.70
2022-11-09T20:19:34.121Z,4.80
2022-11-09T20:22:02.355Z,5.43
2022-11-09T20:24:30.510Z,4.45
2022-11-09T20:27:00.335Z,4.85
2022-11-09T20:29:28.470Z,5.07
2022-11-09T20:31:56.669Z,4.70
2022-11-09T20:34:25.781Z,5.32
2022-11-09T20:36:53.967Z,4.38
2022-11-09T20:39:22.318Z,5.22
2022-11-09T20:41:50.750Z,5.00
2022-11-09T20:44:20.370Z,5.25
2022-11-09T20:46:48.657Z,5.38
2022-11-09T20:49:17.052Z,4.30
2022-11-09T20:51:45.124Z,4.70
2022-11-09T20:54:13.622Z,4.80
2022-11-09T20:56:41.731Z,5.18
2022-11-09T20:59:10.009Z,4.65
2022-11-09T21:01:39.698Z,4.75
2022-11-09T21:04:07.836Z,4.10
2022-11-09T21:06:35.997Z,4.35
2022-11-09T21:09:05.633Z,4.22
2022-11-09T21:11:36.642Z,4.10
2022-11-09T21:16:32.807Z,4.35
2022-11-09T21:19:02.485Z,4.43
2022-11-09T21:21:36.145Z,4.47
2022-11-09T21:24:23.213Z,3.90
2022-11-09T21:27:17.209Z,3.85
2022-11-09T21:29:51.237Z,4.45
2022-11-09T21:32:20.027Z,4.32
2022-11-09T21:34:49.653Z,4.18
2022-11-09T21:37:18.595Z,4.47
2022-11-09T21:39:46.836Z,4.40
2022-11-09T21:42:15.165Z,4.00
2022-11-09T21:44:43.343Z,3.92
2022-11-09T21:47:11.593Z,4.50
2022-11-09T21:49:39.776Z,4.15
2022-11-09T21:52:09.286Z,3.53
2022-11-09T21:54:37.477Z,4.95
2022-11-09T21:57:05.631Z,3.95
2022-11-09T21:59:33.744Z,4.30
2022-11-09T22:02:01.914Z,3.92
2022-11-09T22:04:30.147Z,4.13
2022-11-09T22:06:58.329Z,3.78
2022-11-09T22:09:35.724Z,4.05
2022-11-09T22:12:30.586Z,4.30
2022-11-09T22:15:16.017Z,3.65
2022-11-09T22:17:44.248Z,3.63
2022-11-09T22:20:30.126Z,3.85
2022-11-09T22:22:58.308Z,4.13
2022-11-09T22:25:27.919Z,3.97
2022-11-09T22:27:57.027Z,3.67
2022-11-09T22:30:25.455Z,4.57
2022-11-09T22:32:53.718Z,3.78
2022-11-09T22:35:21.993Z,3.55
2022-11-09T22:37:50.083Z,3.97
2022-11-09T22:40:19.120Z,3.95
2022-11-09T22:42:48.726Z,3.85
2022-11-09T22:45:17.130Z,3.60
2022-11-09T22:47:45.312Z,3.55
2022-11-09T22:50:13.410Z,3.70
2022-11-09T22:52:41.522Z,4.55
2022-11-09T22:55:10.454Z,3.78
2022-11-09T22:57:38.656Z,3.80
2022-11-09T23:00:10.808Z,3.65
2022-11-09T23:02:39.118Z,3.63
2022-11-09T23:05:08.882Z,3.55
2022-11-09T23:07:37.113Z,3.90
2022-11-09T23:10:05.654Z,3.58
2022-11-09T23:12:34.502Z,3.40
2022-11-09T23:15:05.563Z,3.30
2022-11-09T23:17:53.883Z,3.72
2022-11-09T23:20:22.689Z,3.67
2022-11-09T23:22:50.845Z,4.00
2022-11-09T23:25:36.136Z,3.50
2022-11-09T23:28:04.636Z,3.40
2022-11-09T23:30:32.843Z,3.40
2022-11-09T23:33:03.553Z,3.50
2022-11-09T23:35:31.893Z,3.78
2022-11-09T23:38:00.767Z,3.88
2022-11-09T23:40:29.375Z,3.55
2022-11-09T23:43:01.691Z,3.30
2022-11-09T23:45:29.831Z,3.58
2022-11-09T23:47:58.022Z,3.75
2022-11-09T23:50:28.056Z,3.60
2022-11-09T23:52:58.123Z,3.40
2022-11-09T23:55:26.856Z,3.35
2022-11-09T23:57:55.127Z,3.60
